createdAt,value
2018-03-31T00:00:13.836Z,7.80
2018-03-31T00:02:40.813Z,7.80
2018-03-31T00:05:07.812Z,7.80
2018-03-31T00:07:34.808Z,7.80
2018-03-31T00:10:01.788Z,7.70
2018-03-31T00:12:28.787Z,7.60
2018-03-31T00:14:55.771Z,7.60
2018-03-31T00:17:23.516Z,7.50
2018-03-31T00:19:50.486Z,7.50
2018-03-31T00:22:23.896Z,7.60
2018-03-31T00:24:50.872Z,7.70
2018-03-31T00:27:17.865Z,7.50
2018-03-31T00:29:45.635Z,7.50
2018-03-31T00:32:13.419Z,7.40
2018-03-31T00:34:40.407Z,7.40
2018-03-31T00:37:07.394Z,7.50
2018-03-31T00:39:35.146Z,7.50
2018-03-31T00:42:02.921Z,7.40
2018-03-31T00:44:30.663Z,7.40
2018-03-31T00:46:57.655Z,7.40
2018-03-31T00:49:24.631Z,7.40
2018-03-31T00:51:51.619Z,7.50
2018-03-31T00:54:18.595Z,7.50
2018-03-31T00:56:45.588Z,7.50
2018-03-31T00:59:12.568Z,7.50
2018-03-31T01:01:40.316Z,7.40
2018-03-31T01:04:07.303Z,7.40
2018-03-31T01:06:34.292Z,7.40
2018-03-31T01:09:01.276Z,7.50
2018-03-31T01:11:29.027Z,7.50
2018-03-31T01:13:56.012Z,7.70
2018-03-31T01:16:22.988Z,7.40
2018-03-31T01:18:49.967Z,7.30
2018-03-31T01:21:16.950Z,7.30
2018-03-31T01:23:43.931Z,7.30
2018-03-31T01:26:10.924Z,7.30
2018-03-31T01:28:38.664Z,7.20
2018-03-31T01:31:05.657Z,7.20
2018-03-31T01:33:32.641Z,7.30
2018-03-31T01:35:59.638Z,7.20
2018-03-31T01:38:27.375Z,7.20
2018-03-31T01:40:54.363Z,7.40
2018-03-31T01:43:21.347Z,7.20
2018-03-31T01:45:48.355Z,7.20
2018-03-31T01:48:15.334Z,7.20
2018-03-31T01:50:42.373Z,7.10
2018-03-31T01:53:09.377Z,7.10
2018-03-31T01:55:37.110Z,7.10
2018-03-31T01:58:04.098Z,7.10
2018-03-31T02:00:31.082Z,7.10
2018-03-31T02:02:58.075Z,7.10
2018-03-31T02:05:25.828Z,7.10
2018-03-31T02:07:52.815Z,7.20
2018-03-31T02:10:19.791Z,7.10
2018-03-31T02:12:47.543Z,7.10
2018-03-31T02:15:14.519Z,7.30
2018-03-31T02:17:41.505Z,7.00
2018-03-31T02:20:09.243Z,6.90
2018-03-31T02:22:36.231Z,6.90
2018-03-31T02:25:03.214Z,6.90
2018-03-31T02:27:30.567Z,6.90
2018-03-31T02:29:57.547Z,7.00
2018-03-31T02:32:24.536Z,7.00
2018-03-31T02:34:51.517Z,7.00
2018-03-31T02:37:18.503Z,7.00
2018-03-31T02:39:46.248Z,7.10
2018-03-31T02:42:13.248Z,7.10
2018-03-31T02:44:40.236Z,7.10
2018-03-31T02:47:07.228Z,7.20
2018-03-31T02:49:34.209Z,7.20
2018-03-31T02:52:01.197Z,7.20
2018-03-31T02:54:28.941Z,7.10
2018-03-31T02:56:55.940Z,7.10
2018-03-31T02:59:22.920Z,7.00
2018-03-31T03:01:49.920Z,7.00
2018-03-31T03:04:17.657Z,7.00
2018-03-31T03:06:44.648Z,7.00
2018-03-31T03:09:11.620Z,7.00
2018-03-31T03:11:38.610Z,7.10
2018-03-31T03:14:06.354Z,7.00
2018-03-31T03:16:33.346Z,7.10
2018-03-31T03:19:00.323Z,7.00
2018-03-31T03:21:27.307Z,7.00
2018-03-31T03:23:54.288Z,7.10
2018-03-31T03:26:21.276Z,7.10
2018-03-31T03:28:48.255Z,7.10
2018-03-31T03:31:16.013Z,7.10
2018-03-31T03:33:43.761Z,7.10
2018-03-31T03:36:10.755Z,7.00
2018-03-31T03:38:37.744Z,7.10
2018-03-31T03:41:04.718Z,7.00
2018-03-31T03:43:31.705Z,6.90
2018-03-31T03:45:58.680Z,6.90
2018-03-31T03:48:25.666Z,6.80
2018-03-31T03:50:53.407Z,6.70
2018-03-31T03:53:20.395Z,6.80
2018-03-31T03:55:47.497Z,6.70
2018-03-31T03:58:14.486Z,6.70
2018-03-31T04:00:42.246Z,6.50
2018-03-31T04:03:09.992Z,6.40
2018-03-31T04:05:36.971Z,6.50
2018-03-31T04:08:03.956Z,6.40
2018-03-31T04:10:30.940Z,6.40
2018-03-31T04:12:58.689Z,6.30
2018-03-31T04:15:25.671Z,6.20
2018-03-31T04:17:52.664Z,6.30
2018-03-31T04:20:19.651Z,6.30
2018-03-31T04:22:47.408Z,6.30
2018-03-31T04:25:15.161Z,6.30
2018-03-31T04:27:42.150Z,6.40
2018-03-31T04:30:09.132Z,6.30
2018-03-31T04:32:36.143Z,6.50
2018-03-31T04:35:03.134Z,6.50
2018-03-31T04:37:30.558Z,6.50
2018-03-31T04:39:57.536Z,6.60
2018-03-31T04:42:24.523Z,6.60
2018-03-31T04:44:52.272Z,6.50
2018-03-31T04:47:19.286Z,6.60
2018-03-31T04:49:46.264Z,6.50
2018-03-31T04:52:13.253Z,6.40
2018-03-31T04:54:40.247Z,6.40
2018-03-31T04:57:07.230Z,6.40
2018-03-31T04:59:34.233Z,6.40
2018-03-31T05:02:01.234Z,6.40
2018-03-31T05:04:28.211Z,6.50
2018-03-31T05:06:55.195Z,6.50
2018-03-31T05:09:22.186Z,6.50
2018-03-31T05:11:49.176Z,6.50
2018-03-31T05:14:16.156Z,6.50
2018-03-31T05:16:43.159Z,6.50
2018-03-31T05:19:10.135Z,6.40
2018-03-31T05:21:37.884Z,6.40
2018-03-31T05:24:04.868Z,6.20
2018-03-31T05:26:31.856Z,6.40
2018-03-31T05:28:58.844Z,6.30
2018-03-31T05:31:26.578Z,6.20
2018-03-31T05:33:53.567Z,6.20
2018-03-31T05:36:21.312Z,6.20
2018-03-31T05:38:48.298Z,6.30
2018-03-31T05:41:15.276Z,6.10
2018-03-31T05:43:42.264Z,6.00
2018-03-31T05:46:10.016Z,6.00
2018-03-31T05:48:37.007Z,6.10
2018-03-31T05:51:03.984Z,6.00
2018-03-31T05:53:30.976Z,6.00
2018-03-31T05:55:58.727Z,5.90
2018-03-31T05:58:26.500Z,5.90
2018-03-31T06:00:54.240Z,5.90
2018-03-31T06:03:21.225Z,6.00
2018-03-31T06:05:48.204Z,6.10
2018-03-31T06:08:15.189Z,5.80
2018-03-31T06:10:42.182Z,5.80
2018-03-31T06:13:09.171Z,5.90
2018-03-31T06:15:36.144Z,5.90
2018-03-31T06:18:03.907Z,5.90
2018-03-31T06:20:31.648Z,5.90
2018-03-31T06:22:58.635Z,6.10
2018-03-31T06:25:25.619Z,5.90
2018-03-31T06:27:52.635Z,5.90
2018-03-31T06:30:19.617Z,5.80
2018-03-31T06:32:46.600Z,5.80
2018-03-31T06:35:14.359Z,5.70
2018-03-31T06:37:41.348Z,5.90
2018-03-31T06:40:08.327Z,5.80
2018-03-31T06:42:35.320Z,5.80
2018-03-31T06:45:03.065Z,5.80
2018-03-31T06:47:30.053Z,5.60
2018-03-31T06:49:59.987Z,5.70
2018-03-31T06:52:26.982Z,5.70
2018-03-31T06:54:54.730Z,5.60
2018-03-31T06:57:21.721Z,5.70
2018-03-31T06:59:48.687Z,5.60
2018-03-31T07:02:15.685Z,5.60
2018-03-31T07:04:56.623Z,5.60
2018-03-31T07:07:23.605Z,5.70
2018-03-31T07:09:51.043Z,5.70
2018-03-31T07:12:18.114Z,5.70
2018-03-31T07:14:45.184Z,5.70
2018-03-31T07:17:12.172Z,5.80
2018-03-31T07:19:39.199Z,5.90
2018-03-31T07:22:06.212Z,5.90
2018-03-31T07:24:33.953Z,5.90
2018-03-31T07:27:00.928Z,6.00
2018-03-31T07:29:28.694Z,5.80
2018-03-31T07:31:56.436Z,5.80
2018-03-31T07:34:23.416Z,5.80
2018-03-31T07:36:50.396Z,5.70
2018-03-31T07:39:17.424Z,5.60
2018-03-31T07:41:44.830Z,5.60
2018-03-31T07:44:11.832Z,5.70
2018-03-31T07:46:38.823Z,5.70
2018-03-31T07:49:05.816Z,5.70
2018-03-31T07:51:32.795Z,5.70
2018-03-31T07:53:59.775Z,5.80
2018-03-31T07:56:27.525Z,5.70
2018-03-31T07:58:54.573Z,5.60
2018-03-31T08:01:21.558Z,5.80
2018-03-31T08:03:48.567Z,5.80
2018-03-31T08:06:15.539Z,5.80
2018-03-31T08:08:43.306Z,5.70
2018-03-31T08:11:11.049Z,5.80
2018-03-31T08:13:38.029Z,5.90
2018-03-31T08:16:05.020Z,5.90
2018-03-31T08:18:32.011Z,5.90
2018-03-31T08:20:59.742Z,5.80
2018-03-31T08:23:26.744Z,5.80
2018-03-31T08:25:53.735Z,5.80
2018-03-31T08:28:20.727Z,5.80
2018-03-31T08:30:47.715Z,5.80
2018-03-31T08:33:14.724Z,5.80
2018-03-31T08:35:41.722Z,5.80
2018-03-31T08:38:08.712Z,6.00
2018-03-31T08:40:35.700Z,5.80
2018-03-31T08:43:02.687Z,5.70
2018-03-31T08:45:29.675Z,5.80
2018-03-31T08:47:56.655Z,5.90
2018-03-31T08:50:23.655Z,5.90
2018-03-31T08:52:50.648Z,5.90
2018-03-31T08:55:17.636Z,5.80
2018-03-31T08:57:45.517Z,5.80
2018-03-31T09:00:12.510Z,6.00
2018-03-31T09:02:39.877Z,6.00
2018-03-31T09:05:06.847Z,5.80
2018-03-31T09:07:34.604Z,5.90
2018-03-31T09:10:02.347Z,5.90
2018-03-31T09:12:29.324Z,5.90
2018-03-31T09:14:56.319Z,5.90
2018-03-31T09:17:23.415Z,5.80
2018-03-31T09:19:51.162Z,5.90
2018-03-31T09:22:18.161Z,6.00
2018-03-31T09:24:45.144Z,5.80
2018-03-31T09:27:12.141Z,6.10
2018-03-31T09:29:39.140Z,5.90
2018-03-31T09:32:06.116Z,5.80
2018-03-31T09:34:33.879Z,5.80
2018-03-31T09:37:01.626Z,5.80
2018-03-31T09:39:28.636Z,6.10
2018-03-31T09:41:55.615Z,5.90
2018-03-31T09:44:22.617Z,5.90
2018-03-31T09:46:49.628Z,5.80
2018-03-31T09:49:16.591Z,5.80
2018-03-31T09:51:43.571Z,5.70
2018-03-31T09:54:10.564Z,5.70
2018-03-31T09:56:37.746Z,5.70
2018-03-31T09:59:05.188Z,5.70
2018-03-31T10:01:32.928Z,5.60
2018-03-31T10:03:59.919Z,5.80
2018-03-31T10:06:26.906Z,5.70
2018-03-31T10:08:53.890Z,5.70
2018-03-31T10:11:21.627Z,5.80
2018-03-31T10:13:48.622Z,6.10
2018-03-31T10:16:15.599Z,5.80
2018-03-31T10:18:42.596Z,5.80
2018-03-31T10:21:10.337Z,5.60
2018-03-31T10:23:37.353Z,5.60
2018-03-31T10:26:04.319Z,5.60
2018-03-31T10:28:31.306Z,5.50
2018-03-31T10:30:59.059Z,5.60
2018-03-31T10:33:26.835Z,5.60
2018-03-31T10:35:54.582Z,5.60
2018-03-31T10:38:21.569Z,5.70
2018-03-31T10:40:48.548Z,5.50
2018-03-31T10:43:15.552Z,5.50
2018-03-31T10:45:42.575Z,5.50
2018-03-31T10:48:09.589Z,5.30
2018-03-31T10:50:36.571Z,5.50
2018-03-31T10:53:03.659Z,5.50
2018-03-31T10:55:30.669Z,5.60
2018-03-31T10:57:58.446Z,5.70
2018-03-31T11:00:26.196Z,5.40
2018-03-31T11:02:53.949Z,5.40
2018-03-31T11:05:20.963Z,5.70
2018-03-31T11:07:47.938Z,5.40
2018-03-31T11:10:14.919Z,5.30
2018-03-31T11:12:41.896Z,5.30
2018-03-31T11:15:08.888Z,5.10
2018-03-31T11:17:35.887Z,5.10
2018-03-31T11:20:02.967Z,5.10
2018-03-31T11:22:29.952Z,5.30
2018-03-31T11:24:57.704Z,5.30
2018-03-31T11:27:25.457Z,5.50
2018-03-31T11:29:52.475Z,5.30
2018-03-31T11:32:19.486Z,5.30
2018-03-31T11:34:46.450Z,5.30
2018-03-31T11:37:13.436Z,5.30
2018-03-31T11:39:41.144Z,5.30
2018-03-31T11:42:08.124Z,5.30
2018-03-31T11:44:35.122Z,5.30
2018-03-31T11:47:02.863Z,5.20
2018-03-31T11:49:29.852Z,5.40
2018-03-31T11:51:56.821Z,5.20
2018-03-31T11:54:23.821Z,5.00
2018-03-31T11:56:50.801Z,4.80
2018-03-31T11:59:17.784Z,4.90
2018-03-31T12:01:44.762Z,5.00
2018-03-31T12:04:12.510Z,4.90
2018-03-31T12:06:39.518Z,5.20
2018-03-31T12:09:06.508Z,5.10
2018-03-31T12:11:33.489Z,5.00
2018-03-31T12:14:00.491Z,5.00
2018-03-31T12:16:27.473Z,5.20
2018-03-31T12:18:55.232Z,5.30
2018-03-31T12:21:22.976Z,5.10
2018-03-31T12:23:49.959Z,5.40
2018-03-31T12:26:16.953Z,5.00
2018-03-31T12:28:43.939Z,5.10
2018-03-31T12:31:11.683Z,5.10
2018-03-31T12:33:38.668Z,5.20
2018-03-31T12:36:05.647Z,5.00
2018-03-31T12:38:32.674Z,5.00
2018-03-31T12:40:59.693Z,5.00
2018-03-31T12:43:27.532Z,5.00
2018-03-31T12:45:54.536Z,5.20
2018-03-31T12:48:22.392Z,4.90
2018-03-31T12:50:49.396Z,4.90
2018-03-31T12:53:16.378Z,5.10
2018-03-31T12:55:43.380Z,5.10
2018-03-31T12:58:10.367Z,5.10
2018-03-31T13:00:37.383Z,5.00
2018-03-31T13:03:04.363Z,5.00
2018-03-31T13:05:31.359Z,5.10
2018-03-31T13:07:58.335Z,5.20
2018-03-31T13:10:26.089Z,5.30
2018-03-31T13:12:53.090Z,5.30
2018-03-31T13:15:20.080Z,5.40
2018-03-31T13:17:47.080Z,5.40
2018-03-31T13:20:14.060Z,5.20
2018-03-31T13:22:41.068Z,5.20
2018-03-31T13:25:08.051Z,5.10
2018-03-31T13:27:35.806Z,5.20
2018-03-31T13:30:02.792Z,5.40
2018-03-31T13:32:29.778Z,5.20
2018-03-31T13:34:56.784Z,5.20
2018-03-31T13:37:23.743Z,5.10
2018-03-31T13:39:51.502Z,5.10
2018-03-31T13:42:18.498Z,5.10
2018-03-31T13:44:45.483Z,5.30
2018-03-31T13:47:12.461Z,5.30
2018-03-31T13:49:39.472Z,5.30
2018-03-31T13:52:06.448Z,5.30
2018-03-31T13:54:34.254Z,5.20
2018-03-31T13:57:01.241Z,5.10
2018-03-31T13:59:28.263Z,5.10
2018-03-31T14:01:55.236Z,5.40
2018-03-31T14:04:22.231Z,5.20
2018-03-31T14:06:49.212Z,5.10
2018-03-31T14:09:16.187Z,5.30
2018-03-31T14:11:43.940Z,4.90
2018-03-31T14:14:10.929Z,4.80
2018-03-31T14:16:37.907Z,4.90
2018-03-31T14:19:04.887Z,4.80
2018-03-31T14:21:32.638Z,5.00
2018-03-31T14:23:59.632Z,4.80
2018-03-31T14:26:26.608Z,4.80
2018-03-31T14:28:53.588Z,4.60
2018-03-31T14:31:20.587Z,4.60
2018-03-31T14:33:47.566Z,4.50
2018-03-31T14:36:14.563Z,4.70
2018-03-31T14:38:41.571Z,4.50
2018-03-31T14:41:08.566Z,4.40
2018-03-31T14:43:35.548Z,4.70
2018-03-31T14:46:02.568Z,4.60
2018-03-31T14:48:29.543Z,4.60
2018-03-31T14:50:56.524Z,4.60
2018-03-31T14:53:24.268Z,4.70
2018-03-31T14:55:51.258Z,4.70
2018-03-31T14:58:19.060Z,4.80
2018-03-31T15:00:46.042Z,4.60
2018-03-31T15:03:13.797Z,4.50
2018-03-31T15:05:40.808Z,4.70
2018-03-31T15:08:07.780Z,4.60
2018-03-31T15:10:34.840Z,4.50
2018-03-31T15:13:01.786Z,4.40
2018-03-31T15:15:28.787Z,4.40
2018-03-31T15:17:55.763Z,4.60
2018-03-31T15:20:22.756Z,4.50
2018-03-31T15:22:49.738Z,4.60
2018-03-31T15:25:17.332Z,4.50
2018-03-31T15:27:44.312Z,4.50
2018-03-31T15:30:11.304Z,4.60
2018-03-31T15:32:38.280Z,4.40
2018-03-31T15:35:05.264Z,4.30
2018-03-31T15:37:32.243Z,4.60
2018-03-31T15:39:59.289Z,4.40
2018-03-31T15:42:26.257Z,4.60
2018-03-31T15:44:53.237Z,4.30
2018-03-31T15:47:20.241Z,4.60
2018-03-31T15:49:47.227Z,4.50
2018-03-31T15:52:14.971Z,4.60
2018-03-31T15:54:41.956Z,4.50
2018-03-31T15:57:08.939Z,4.60
2018-03-31T15:59:36.030Z,4.30
2018-03-31T16:02:02.927Z,4.50
2018-03-31T16:04:29.919Z,4.50
2018-03-31T16:06:57.664Z,4.60
2018-03-31T16:09:24.643Z,4.30
2018-03-31T16:11:51.644Z,4.30
2018-03-31T16:14:18.622Z,4.30
2018-03-31T16:16:46.376Z,4.50
2018-03-31T16:19:13.355Z,4.40
2018-03-31T16:21:40.348Z,4.10
2018-03-31T16:24:07.315Z,4.40
2018-03-31T16:26:34.318Z,4.20
2018-03-31T16:29:01.300Z,4.30
2018-03-31T16:31:28.284Z,4.40
2018-03-31T16:33:55.267Z,4.20
2018-03-31T16:36:22.261Z,4.10
2018-03-31T16:38:50.028Z,4.30
2018-03-31T16:41:17.796Z,4.20
2018-03-31T16:43:45.543Z,4.40
2018-03-31T16:46:12.525Z,4.20
2018-03-31T16:48:39.508Z,4.50
2018-03-31T16:51:06.503Z,4.30
2018-03-31T16:53:34.263Z,4.50
2018-03-31T16:56:02.032Z,4.40
2018-03-31T16:58:29.786Z,4.60
2018-03-31T17:00:56.808Z,4.50
2018-03-31T17:03:23.786Z,4.40
2018-03-31T17:05:51.535Z,4.20
2018-03-31T17:08:18.516Z,4.40
2018-03-31T17:10:45.497Z,4.40
2018-03-31T17:13:12.490Z,4.30
2018-03-31T17:15:40.266Z,4.50
2018-03-31T17:18:08.016Z,4.40
2018-03-31T17:20:35.796Z,4.40
2018-03-31T17:23:03.540Z,4.40
2018-03-31T17:25:30.531Z,4.30
2018-03-31T17:27:57.508Z,4.50
2018-03-31T17:30:24.495Z,4.40
2018-03-31T17:32:52.267Z,4.60
2018-03-31T17:35:19.277Z,4.30
2018-03-31T17:37:46.244Z,4.30
2018-03-31T17:40:14.044Z,4.30
2018-03-31T17:42:41.022Z,4.40
2018-03-31T17:45:08.013Z,4.50
2018-03-31T17:47:35.753Z,4.30
2018-03-31T17:50:02.759Z,4.40
2018-03-31T17:52:29.748Z,4.40
2018-03-31T17:54:56.724Z,4.50
2018-03-31T17:57:23.716Z,4.60
2018-03-31T17:59:50.706Z,4.60
2018-03-31T18:02:18.512Z,4.60
2018-03-31T18:04:45.498Z,4.50
2018-03-31T18:07:12.528Z,4.60
2018-03-31T18:09:39.527Z,4.50
2018-03-31T18:12:06.527Z,4.60
2018-03-31T18:14:33.515Z,4.70
2018-03-31T18:17:01.286Z,4.70
2018-03-31T18:19:29.083Z,4.70
2018-03-31T18:21:56.039Z,4.70
2018-03-31T18:24:23.804Z,4.90
2018-03-31T18:26:50.808Z,4.70
2018-03-31T18:29:18.547Z,4.80
2018-03-31T18:31:46.212Z,4.50
2018-03-31T18:34:13.196Z,4.70
2018-03-31T18:36:40.173Z,4.60
2018-03-31T18:39:07.151Z,4.50
2018-03-31T18:41:34.136Z,4.50
2018-03-31T18:44:01.110Z,4.40
2018-03-31T18:46:28.099Z,4.20
2018-03-31T18:48:55.860Z,4.30
2018-03-31T18:51:22.907Z,4.30
2018-03-31T18:53:49.832Z,4.30
2018-03-31T18:56:16.917Z,4.30
2018-03-31T18:58:44.673Z,4.20
2018-03-31T19:01:12.425Z,4.20
2018-03-31T19:03:39.416Z,4.20
2018-03-31T19:06:06.398Z,4.30
2018-03-31T19:08:33.388Z,4.30
2018-03-31T19:11:01.196Z,4.40
2018-03-31T19:13:28.137Z,4.40
2018-03-31T19:15:55.143Z,4.20
2018-03-31T19:18:22.893Z,4.30
2018-03-31T19:20:49.889Z,4.40
2018-03-31T19:23:16.884Z,4.40
2018-03-31T19:25:43.867Z,4.40
2018-03-31T19:28:10.878Z,4.40
2018-03-31T19:30:43.480Z,4.50
2018-03-31T19:33:11.231Z,4.40
2018-03-31T19:35:44.716Z,4.40
2018-03-31T19:38:11.693Z,4.30
2018-03-31T19:40:39.428Z,4.20
2018-03-31T19:43:06.419Z,4.20
2018-03-31T19:45:33.388Z,4.20
2018-03-31T19:48:00.424Z,4.30
2018-03-31T19:50:27.417Z,4.50
2018-03-31T19:52:54.399Z,4.30
2018-03-31T19:55:21.385Z,4.30
2018-03-31T19:57:48.364Z,4.30
2018-03-31T20:00:15.335Z,4.60
2018-03-31T20:02:42.325Z,4.60
2018-03-31T20:05:09.305Z,4.30
2018-03-31T20:07:36.283Z,4.30
2018-03-31T20:10:03.267Z,4.30
2018-03-31T20:12:30.251Z,4.40
2018-03-31T20:14:58.006Z,4.30
2018-03-31T20:17:24.997Z,4.60
2018-03-31T20:19:51.981Z,4.50
2018-03-31T20:22:18.972Z,4.20
2018-03-31T20:24:46.720Z,4.20
2018-03-31T20:27:14.477Z,4.50
2018-03-31T20:29:41.467Z,4.30
2018-03-31T20:32:08.481Z,4.30
2018-03-31T20:34:36.232Z,4.20
2018-03-31T20:39:57.382Z,4.10
2018-03-31T20:42:25.172Z,4.20
2018-03-31T20:44:52.148Z,4.10
2018-03-31T20:47:19.130Z,4.20
2018-03-31T20:49:46.123Z,4.20
2018-03-31T20:52:13.111Z,4.10
2018-03-31T20:54:40.096Z,4.30
2018-03-31T20:57:07.088Z,4.20
2018-03-31T20:59:34.083Z,4.40
2018-03-31T21:02:01.835Z,4.30
2018-03-31T21:04:29.580Z,4.10
2018-03-31T21:06:56.572Z,4.40
2018-03-31T21:09:23.566Z,4.30
2018-03-31T21:11:50.569Z,3.90
2018-03-31T21:14:17.545Z,4.10
2018-03-31T21:16:44.540Z,4.00
2018-03-31T21:19:12.287Z,3.70
2018-03-31T21:21:39.280Z,3.80
2018-03-31T21:24:06.275Z,4.00
2018-03-31T21:26:33.263Z,3.70
2018-03-31T21:29:00.271Z,3.80
2018-03-31T21:31:27.263Z,4.00
2018-03-31T21:33:54.231Z,3.70
2018-03-31T21:36:21.232Z,3.50
2018-03-31T21:38:48.985Z,3.70
2018-03-31T21:41:15.992Z,3.80
2018-03-31T21:43:43.004Z,3.80
2018-03-31T21:46:09.980Z,3.70
2018-03-31T21:48:36.970Z,3.90
2018-03-31T21:51:03.944Z,3.70
2018-03-31T21:53:30.943Z,3.50
2018-03-31T21:55:58.678Z,3.50
2018-03-31T21:58:25.666Z,3.40
2018-03-31T22:00:52.647Z,3.40
2018-03-31T22:03:19.639Z,3.40
2018-03-31T22:05:46.616Z,3.60
2018-03-31T22:08:13.609Z,3.40
2018-03-31T22:10:40.597Z,3.60
2018-03-31T22:13:13.307Z,3.70
2018-03-31T22:15:46.693Z,3.30
2018-03-31T22:18:13.668Z,3.30
2018-03-31T22:20:40.657Z,3.10
2018-03-31T22:23:07.647Z,3.20
2018-03-31T22:25:35.396Z,3.40
2018-03-31T22:28:02.397Z,3.60
2018-03-31T22:30:29.374Z,3.60
2018-03-31T22:32:56.360Z,3.50
2018-03-31T22:35:23.847Z,3.80
2018-03-31T22:37:50.844Z,3.50
2018-03-31T22:40:17.819Z,3.30
2018-03-31T22:42:44.803Z,3.40
2018-03-31T22:45:11.784Z,3.40
2018-03-31T22:47:39.542Z,3.20
2018-03-31T22:50:06.515Z,3.00
2018-03-31T22:52:33.619Z,3.00
2018-03-31T22:55:00.588Z,2.80
2018-03-31T22:57:27.588Z,3.00
2018-03-31T22:59:54.569Z,3.10
2018-03-31T23:02:21.630Z,3.00
2018-03-31T23:04:48.602Z,2.80
2018-03-31T23:07:15.604Z,2.80
2018-03-31T23:09:42.594Z,2.70
2018-03-31T23:12:09.592Z,2.80
2018-03-31T23:14:36.579Z,2.90
2018-03-31T23:17:04.332Z,2.70
2018-03-31T23:19:32.076Z,2.60
2018-03-31T23:21:59.060Z,2.40
2018-03-31T23:24:26.803Z,2.30
2018-03-31T23:26:53.793Z,2.50
2018-03-31T23:29:20.776Z,2.60
2018-03-31T23:31:47.785Z,2.40
2018-03-31T23:34:14.764Z,2.60
2018-03-31T23:36:41.743Z,2.40
2018-03-31T23:39:09.495Z,2.80
2018-03-31T23:41:36.487Z,2.50
2018-03-31T23:44:03.473Z,2.40
2018-03-31T23:46:30.451Z,2.40
2018-03-31T23:48:58.208Z,2.60
2018-03-31T23:51:25.184Z,2.60
2018-03-31T23:53:52.204Z,2.40
2018-03-31T23:56:19.950Z,2.50
2018-03-31T23:58:46.939Z,2.60
